createdAt,value
2018-08-28T01:06:58.250Z,101146.20
2018-08-28T01:12:00.495Z,101151.02
2018-08-28T01:17:02.779Z,101162.22
2018-08-28T01:22:05.221Z,101159.67
2018-08-28T01:27:07.336Z,101164.44
2018-08-28T01:32:09.438Z,101170.42
2018-08-28T01:37:11.621Z,101173.94
2018-08-28T03:05:33.836Z,101231.16
2018-08-28T03:10:36.764Z,101241.34
2018-08-28T03:15:39.018Z,101253.95
2018-08-28T03:20:41.062Z,101252.98
2018-08-28T03:25:43.190Z,101261.42
2018-08-28T03:30:45.346Z,101266.88
2018-08-28T03:35:47.491Z,101267.62
2018-08-28T03:40:49.618Z,101271.43
2018-08-28T03:45:51.734Z,101277.15
2018-08-28T03:50:53.842Z,101283.41
2018-08-28T03:55:55.963Z,101281.30
2018-08-28T04:00:58.080Z,101295.48
2018-08-28T04:06:00.178Z,101296.14
2018-08-28T04:11:02.329Z,101301.84
2018-08-28T04:16:04.533Z,101304.53
2018-08-28T04:21:06.654Z,101310.41
2018-08-28T04:26:08.767Z,101309.07
2018-08-28T04:31:10.887Z,101314.16
2018-08-28T04:36:12.996Z,101323.05
2018-08-28T04:41:15.122Z,101322.08
2018-08-28T04:46:17.269Z,101328.50
2018-08-28T04:51:19.402Z,101338.20
2018-08-28T04:56:21.498Z,101351.38
2018-08-28T05:01:23.602Z,101344.66
2018-08-28T05:06:25.745Z,101350.55
2018-08-28T05:11:27.895Z,101349.38
2018-08-28T05:16:30.029Z,101359.77
2018-08-28T05:21:32.174Z,101371.24
2018-08-28T05:26:34.291Z,101373.60
2018-08-28T05:31:36.374Z,101375.60
2018-08-28T05:36:38.514Z,101380.39
2018-08-28T05:41:40.639Z,101384.28
2018-08-28T05:46:42.769Z,101390.52
2018-08-28T05:51:44.906Z,101388.56
2018-08-28T05:56:47.004Z,101398.17
2018-08-28T06:01:49.153Z,101401.00
2018-08-28T06:06:51.267Z,101405.80
2018-08-28T06:11:53.433Z,101404.80
2018-08-28T06:16:55.528Z,101410.56
2018-08-28T06:21:57.646Z,101414.38
2018-08-28T06:26:59.774Z,101412.13
2018-08-28T06:32:01.875Z,101410.23
2018-08-28T06:37:04.039Z,101413.98
2018-08-28T06:42:06.221Z,101413.42
2018-08-28T06:47:08.387Z,101421.46
2018-08-28T06:52:10.607Z,101423.02
2018-08-28T06:57:12.774Z,101428.00
2018-08-28T07:02:14.906Z,101429.51
2018-08-28T07:07:17.031Z,101432.72
2018-08-28T07:12:19.228Z,101439.50
2018-08-28T07:17:23.054Z,101440.15
2018-08-28T07:22:26.368Z,101439.31
2018-08-28T07:27:28.511Z,101446.14
2018-08-28T07:32:30.616Z,101453.66
2018-08-28T07:37:33.295Z,101452.20
2018-08-28T07:42:35.407Z,101457.15
2018-08-28T07:47:37.546Z,101464.45
2018-08-28T07:52:39.683Z,101463.73
2018-08-28T07:57:41.801Z,101464.62
2018-08-28T08:02:43.914Z,101468.72
2018-08-28T08:07:46.100Z,101461.69
2018-08-28T08:12:48.292Z,101462.44
2018-08-28T08:17:51.209Z,101465.23
2018-08-28T08:22:53.348Z,101477.87
2018-08-28T08:27:55.538Z,101474.54
2018-08-28T08:32:57.685Z,101481.36
2018-08-28T08:37:59.818Z,101489.03
2018-08-28T08:43:02.169Z,101491.55
2018-08-28T08:48:04.350Z,101497.28
2018-08-28T08:53:06.447Z,101505.14
2018-08-28T08:58:08.577Z,101503.67
2018-08-28T09:03:10.721Z,101502.16
2018-08-28T09:08:12.895Z,101510.80
2018-08-28T09:13:15.085Z,101527.91
2018-08-28T09:18:17.239Z,101540.22
2018-08-28T09:23:19.344Z,101541.23
2018-08-28T09:28:21.473Z,101531.05
2018-08-28T09:33:23.589Z,101516.55
2018-08-28T09:38:25.722Z,101520.05
2018-08-28T09:43:27.870Z,101525.45
2018-08-28T09:48:30.147Z,101524.89
2018-08-28T09:53:32.237Z,101532.90
2018-08-28T09:58:34.387Z,101542.91
2018-08-28T10:03:36.498Z,101546.15
2018-08-28T10:08:38.671Z,101549.31
2018-08-28T10:13:40.839Z,101555.83
2018-08-28T10:18:42.932Z,101562.72
2018-08-28T10:23:45.091Z,101551.50
2018-08-28T10:28:47.231Z,101560.16
2018-08-28T10:33:49.439Z,101562.44
2018-08-28T10:38:51.579Z,101559.16
2018-08-28T10:43:53.690Z,101570.22
2018-08-28T10:48:55.814Z,101566.61
2018-08-28T10:53:57.950Z,101568.96
2018-08-28T10:59:00.078Z,101571.05
2018-08-28T11:04:02.501Z,101577.06
2018-08-28T11:09:05.392Z,101574.18
2018-08-28T11:14:07.600Z,101573.73
2018-08-28T11:19:09.762Z,101582.45
2018-08-28T11:24:12.844Z,101582.00
2018-08-28T11:29:14.964Z,101582.03
2018-08-28T11:34:17.699Z,101581.82
2018-08-28T11:39:19.875Z,101587.26
2018-08-28T11:44:22.054Z,101596.72
2018-08-28T11:49:24.212Z,101602.27
2018-08-28T11:54:26.373Z,101594.88
2018-08-28T11:59:28.543Z,101595.94
2018-08-28T12:04:30.705Z,101595.94
2018-08-28T12:09:32.855Z,101598.19
2018-08-28T12:14:35.028Z,101605.02
2018-08-28T12:19:37.194Z,101604.15
2018-08-28T12:24:39.379Z,101605.30
2018-08-28T12:29:41.663Z,101603.33
2018-08-28T12:34:43.757Z,101602.09
2018-08-28T12:39:45.850Z,101606.86
2018-08-28T12:44:48.024Z,101610.58
2018-08-28T12:49:50.181Z,101617.91
2018-08-28T12:54:52.361Z,101625.06
2018-08-28T12:59:54.557Z,101622.47
2018-08-28T13:04:56.716Z,101626.31
2018-08-28T13:09:58.884Z,101629.87
2018-08-28T13:15:01.104Z,101633.21
2018-08-28T13:20:03.432Z,101633.70
2018-08-28T13:25:06.348Z,101633.23
2018-08-28T13:30:08.493Z,101628.72
2018-08-28T13:35:10.694Z,101626.64
2018-08-28T13:40:13.001Z,101623.67
2018-08-28T13:45:15.106Z,101621.05
2018-08-28T13:50:17.305Z,101625.42
2018-08-28T13:55:19.631Z,101621.88
2018-08-28T14:00:21.897Z,101619.63
2018-08-28T14:05:24.091Z,101615.75
2018-08-28T14:10:26.259Z,101385.09
2018-08-28T14:15:28.446Z,101619.38
2018-08-28T14:20:30.594Z,101622.01
2018-08-28T14:25:32.759Z,101621.92
2018-08-28T14:30:34.956Z,101628.64
2018-08-28T14:35:37.171Z,101633.22
2018-08-28T14:40:39.360Z,101636.11
2018-08-28T14:45:41.626Z,101632.64
2018-08-28T14:50:43.828Z,101637.75
2018-08-28T14:55:46.041Z,101636.34
2018-08-28T15:00:48.240Z,101644.58
2018-08-28T15:05:50.401Z,101627.63
2018-08-28T15:10:52.591Z,101634.30
2018-08-28T15:15:54.869Z,101628.16
2018-08-28T15:20:57.221Z,101628.76
2018-08-28T15:25:59.448Z,101627.81
2018-08-28T15:31:01.630Z,101625.98
2018-08-28T15:36:03.819Z,101630.98
2018-08-28T15:41:06.095Z,101627.92
2018-08-28T15:46:08.365Z,101626.52
2018-08-28T15:51:10.679Z,101620.42
2018-08-28T15:56:12.875Z,101621.64
2018-08-28T16:01:15.070Z,101627.55
2018-08-28T16:06:17.283Z,101619.80
2018-08-28T16:11:19.483Z,101623.69
2018-08-28T16:16:21.704Z,101620.68
2018-08-28T16:21:28.101Z,101622.34
2018-08-28T16:26:30.353Z,101627.34
2018-08-28T16:31:32.638Z,101628.58
2018-08-28T16:36:34.911Z,101619.50
2018-08-28T16:41:37.516Z,101619.83
2018-08-28T16:46:40.000Z,101624.55
2018-08-28T16:51:42.261Z,101627.44
2018-08-28T16:56:44.500Z,101623.55
2018-08-28T17:01:46.727Z,101619.57
2018-08-28T17:06:48.937Z,101630.17
2018-08-28T17:11:51.228Z,101630.11
2018-08-28T17:16:53.544Z,101630.44
2018-08-28T17:21:56.454Z,101622.27
2018-08-28T17:26:58.685Z,101629.93
2018-08-28T17:32:01.059Z,101628.12
2018-08-28T17:37:03.615Z,101623.36
2018-08-28T17:42:05.854Z,101620.37
2018-08-28T17:47:08.162Z,101622.81
2018-08-28T17:52:10.816Z,101624.03
2018-08-28T17:57:13.093Z,101630.81
2018-08-28T18:02:15.360Z,101639.29
2018-08-28T18:07:17.699Z,101642.24
2018-08-28T18:12:20.045Z,101643.48
2018-08-28T18:17:22.416Z,101642.13
2018-08-28T18:22:24.822Z,101647.59
2018-08-28T18:27:27.128Z,101650.92
2018-08-28T18:32:29.476Z,101652.61
2018-08-28T18:37:32.205Z,101653.27
2018-08-28T18:42:34.697Z,101656.24
2018-08-28T18:47:36.987Z,101658.78
2018-08-28T18:52:41.544Z,101659.98
2018-08-28T18:57:44.084Z,101666.33
2018-08-28T19:02:48.410Z,101662.91
2018-08-28T19:07:54.541Z,101669.32
2018-08-28T19:12:57.248Z,101666.77
2018-08-28T19:18:00.365Z,101668.81
2018-08-28T19:23:02.813Z,101645.00
2018-08-28T19:28:05.163Z,101662.23
2018-08-28T19:33:07.659Z,101661.43
2018-08-28T19:38:10.276Z,101661.39
2018-08-28T19:43:13.703Z,101659.64
2018-08-28T19:48:16.351Z,101656.09
2018-08-28T19:53:19.220Z,101663.36
2018-08-28T19:58:21.647Z,101660.30
2018-08-28T20:03:23.909Z,101660.22
2018-08-28T20:08:26.219Z,101653.75
2018-08-28T20:13:28.453Z,101653.31
2018-08-28T20:18:30.756Z,101652.86
2018-08-28T20:23:35.980Z,101649.44
2018-08-28T20:28:38.652Z,101650.99
2018-08-28T20:33:40.896Z,101652.17
2018-08-28T20:38:43.226Z,101652.70
2018-08-28T20:43:45.583Z,101640.72
2018-08-28T20:48:47.869Z,101643.48
2018-08-28T20:53:50.934Z,101638.78
2018-08-28T20:58:53.186Z,101635.44
2018-08-28T21:03:55.394Z,101630.65
2018-08-28T21:08:57.747Z,101622.91
2018-08-28T21:14:00.143Z,101623.37
2018-08-28T21:19:02.433Z,101615.34
2018-08-28T21:24:04.926Z,101618.95
2018-08-28T21:29:07.204Z,101616.14
2018-08-28T21:34:09.330Z,101617.13
2018-08-28T21:39:11.502Z,101622.97
2018-08-28T21:44:13.686Z,101615.92
2018-08-28T21:49:16.320Z,101615.41
2018-08-28T21:54:18.456Z,101614.72
2018-08-28T21:59:20.580Z,101621.01
2018-08-28T22:04:22.769Z,101622.92
2018-08-28T22:09:24.914Z,101613.91
2018-08-28T22:14:27.078Z,101620.98
2018-08-28T22:19:29.265Z,101615.81
2018-08-28T22:24:31.532Z,101614.39
2018-08-28T22:29:33.700Z,101614.70
2018-08-28T22:34:35.898Z,101612.90
2018-08-28T22:39:38.045Z,101622.02
2018-08-28T22:44:40.180Z,101616.41
2018-08-28T22:49:42.375Z,101618.91
2018-08-28T22:54:44.529Z,101614.80
2018-08-28T22:59:46.737Z,101614.83
2018-08-28T23:04:48.867Z,101610.38
2018-08-28T23:09:51.015Z,101606.77
2018-08-28T23:14:53.276Z,101600.76
2018-08-28T23:19:55.440Z,101591.91
2018-08-28T23:24:57.812Z,101597.11
2018-08-28T23:30:00.120Z,101591.25
2018-08-28T23:35:02.546Z,101592.89
2018-08-28T23:40:04.717Z,101591.48
2018-08-28T23:45:07.026Z,101590.58
2018-08-28T23:50:09.184Z,101594.17
2018-08-28T23:55:11.355Z,101595.14
